• Join FlightAware (Why Join?)
  • Login
  • US Flag 
05:34PM EDT


 

Airport Tracker/Info


-or-


 

Live Flight TrackerFlight Track Log ✈ AAL1841 ✈ 25-Apr-2012 ✈ KDFW - KTUS

Flight Track Log - Related Links

Times and Time Zones

All times are in EDT time to prevent confusion due to time zone crossing. See the AAL1841 flight status page for this flight to view local times or setup timezone preferences in your user account.

Time Position Orientation Groundspeed Altitude Reporting Facility
EDT Latitude Longitude Course Direction KTS MPH feet Rate Location/Type
10:28AM 32.8703 -97.0345 318° Northwest  Level FlightAware Approximate
10:28AM 32.8856 -97.0508 180° South 149 171 1,500  Level FAA TRACON SMA TRACON (SMA)
10:29AM 32.8539 -97.0508 182° South 171 197 2,700 1,680 Climbing FAA TRACON SMA TRACON (SMA)
10:30AM 32.8167 -97.0525 180° South 222 255 3,800 2,340 Climbing FAA TRACON SMA TRACON (SMA)
10:30AM 32.7678 -97.0528 184° South 257 296 5,800 2,940 Climbing FAA TRACON SMA TRACON (SMA)
10:31AM 32.7172 -97.0567 231° Southwest 267 307 7,700 2,580 Climbing FAA TRACON SMA TRACON (SMA)
10:32AM 32.6889 -97.0989 270° West 280 322 9,300 1,680 Climbing FAA TRACON SMA TRACON (SMA)
10:32AM 32.6892 -97.1633 273° West 284 327 10,000 480 Climbing FAA TRACON SMA TRACON (SMA)
10:33AM 32.6922 -97.2392 274° West 334 384 10,000 60 Level FAA TRACON SMA TRACON (SMA)
10:34AM 32.6961 -97.3072 273° West 334 384 10,100 1,680 Climbing FAA TRACON SMA TRACON (SMA)
10:34AM 32.6994 -97.3836 273° West 334 384 12,300 2,760 Climbing FAA TRACON SMA TRACON (SMA)
10:35AM 32.7025 -97.4542 273° West 345 397 13,900 2,460 Climbing FAA TRACON SMA TRACON (SMA)
10:36AM 32.7058 -97.5367 273° West 364 419 15,600 2,580 Climbing FAA TRACON SMA TRACON (SMA)
10:36AM 32.7100 -97.6219 273° West 372 428 17,400 2,460 Climbing FAA TRACON SMA TRACON (SMA)
10:37AM 32.7133 -97.6983 273° West 377 434 19,000 2,340 Climbing FAA TRACON SMA TRACON (SMA)
10:38AM 32.7167 -97.7858 274° West 383 441 20,500 1,980 Climbing FAA TRACON SMA TRACON (SMA)
10:38AM 32.7214 -97.8758 273° West 392 451 21,700 1,620 Climbing FAA TRACON SMA TRACON (SMA)
10:39AM 32.7244 -97.9572 267° West 402 463 22,700 1,740 Climbing FAA TRACON SMA TRACON (SMA)
10:40AM 32.7208 -98.0511 263° West 412 474 24,000 1,800 Climbing FAA TRACON SMA TRACON (SMA)
10:40AM 32.7106 -98.1467 259° West 423 487 25,100 1,620 Climbing FAA TRACON SMA TRACON (SMA)
10:41AM 32.6906 -98.2675 261° West 435 501 26,600 1,500 Climbing Fort Worth Center
10:42AM 32.6731 -98.3933 262° West 435 501 28,000 1,620 Climbing Fort Worth Center
10:43AM 32.6550 -98.5411 261° West 425 489 29,900 960 Climbing Fort Worth Center
10:44AM 32.6369 -98.6789 262° West 425 489 30,000  Climbing Fort Worth Center
10:45AM 32.6208 -98.8144 261° West 425 489 30,000  Level Fort Worth Center
10:46AM 32.6025 -98.9522 262° West 425 489 30,000  Level Fort Worth Center
10:47AM 32.5861 -99.0900 260° West 425 489 30,000  Level Fort Worth Center
10:48AM 32.5656 -99.2253 262° West 425 489 30,000  Level Fort Worth Center
10:49AM 32.5489 -99.3628 261° West 425 489 30,000  Level Fort Worth Center
10:50AM 32.5300 -99.4981 261° West 425 489 30,000  Level Fort Worth Center
10:51AM 32.5108 -99.6356 260° West 425 489 30,000  Level Fort Worth Center
10:52AM 32.4897 -99.7728 263° West 425 489 30,000  Level Fort Worth Center
10:53AM 32.4744 -99.9103 268° West 425 489 30,000  Level Fort Worth Center
10:54AM 32.4694 -100.0481 266° West 425 489 30,000  Level Fort Worth Center
10:55AM 32.4628 -100.1686 266° West 420 483 30,000  Level Fort Worth Center
10:56AM 32.4556 -100.3039 266° West 420 483 30,000  Level Fort Worth Center
10:57AM 32.4483 -100.4389 266° West 420 483 30,000  Level Fort Worth Center
10:58AM 32.4406 -100.5764 266° West 420 483 30,000  Level Fort Worth Center
10:59AM 32.4331 -100.7092 266° West 420 483 30,000  Level Fort Worth Center
11:00AM 32.4253 -100.8467 265° West 420 483 30,000  Level Fort Worth Center
11:01AM 32.4150 -100.9842 266° West 420 483 30,000  Level Fort Worth Center
11:02AM 32.4069 -101.1192 267° West 420 483 30,000  Level Fort Worth Center
11:03AM 32.4008 -101.2517 264° West 420 483 30,000  Level Fort Worth Center
11:04AM 32.3878 -101.4036 266° West 420 483 30,000  Level Fort Worth Center
11:05AM 32.3792 -101.5411 265° West 425 489 30,000  Level Fort Worth Center
11:06AM 32.3683 -101.6783 266° West 425 489 30,000  Level Fort Worth Center
11:07AM 32.3597 -101.8106 265° West 425 489 30,000  Level Fort Worth Center
11:08AM 32.3486 -101.9478 265° West 425 489 30,000  Level Fort Worth Center
11:09AM 32.3392 -102.0850 264° West 419 482 30,000  Level Fort Worth Center
11:10AM 32.3283 -102.2097 264° West 424 488 30,000  Level Fort Worth Center
11:11AM 32.3167 -102.3467 266° West 424 488 30,000  Level Fort Worth Center
11:12AM 32.3092 -102.4864 264° West 424 488 30,000  Level Fort Worth Center
11:13AM 32.2967 -102.6356 265° West 424 488 30,000  Level Fort Worth Center
11:14AM 32.2867 -102.7775 264° West 424 488 30,000  Level Fort Worth Center
11:15AM 32.2744 -102.9144 264° West 424 488 30,000  Level Fort Worth Center
11:16AM 32.2622 -103.0486 266° West 424 488 30,000  Level Fort Worth Center
11:17AM 32.2539 -103.1856 265° West 424 488 30,000  Level Fort Worth Center
11:18AM 32.2433 -103.3200 265° West 424 488 30,000  Level Fort Worth Center
11:19AM 32.2328 -103.4544 263° West 424 488 30,000  Level Fort Worth Center
11:21AM 32.2169 -103.6131 263° West 436 502 30,000  Level Albuquerque Center
11:22AM 32.2025 -103.7511 263° West 423 487 30,000  Level Albuquerque Center
11:23AM 32.1878 -103.8867 266° West 423 487 30,000  Level Albuquerque Center
11:24AM 32.1794 -104.0339 263° West 423 487 30,000  Level Albuquerque Center
11:25AM 32.1664 -104.1669 265° West 418 481 30,000  Level Albuquerque Center
11:26AM 32.1553 -104.3044 264° West 418 481 30,000  Level Albuquerque Center
11:27AM 32.1442 -104.4397 261° West 418 481 30,000  Level Albuquerque Center
11:28AM 32.1264 -104.5728 264° West 423 487 30,000  Level Albuquerque Center
11:29AM 32.1150 -104.7103 263° West 428 493 30,000  Level Albuquerque Center
11:30AM 32.1011 -104.8453 264° West 428 493 30,000  Level Albuquerque Center
11:31AM 32.0892 -104.9781 262° West 428 493 30,000  Level Albuquerque Center
11:32AM 32.0731 -105.1156 264° West 428 493 30,000  Level Albuquerque Center
11:33AM 32.0608 -105.2481 263° West 428 493 30,000  Level Albuquerque Center
11:34AM 32.0467 -105.3856 264° West 428 493 30,000  Level Albuquerque Center
11:35AM 32.0342 -105.5203 263° West 428 493 30,000  Level Albuquerque Center
11:36AM 32.0194 -105.6528 263° West 428 493 30,000  Level Albuquerque Center
11:37AM 32.0067 -105.7828 262° West 428 493 30,000  Level Albuquerque Center
11:38AM 31.9914 -105.9078 263° West 428 493 30,000  Level Albuquerque Center
11:39AM 31.9783 -106.0403 262° West 423 487 30,000  Level Albuquerque Center
11:40AM 31.9631 -106.1750 268° West 423 487 30,000  Level Albuquerque Center
11:41AM 31.9581 -106.3094 274° West 423 487 30,000  Level Albuquerque Center
11:42AM 31.9656 -106.4464 275° West 423 487 30,000  Level Albuquerque Center
11:43AM 31.9747 -106.5808 274° West 423 487 30,000  Level Albuquerque Center
11:44AM 31.9819 -106.7153 275° West 423 487 30,000  Level Albuquerque Center
11:45AM 31.9931 -106.8547 274° West 423 487 30,000  Level Albuquerque Center
11:46AM 32.0017 -106.9892 275° West 423 487 30,000  Level Albuquerque Center
11:47AM 32.0125 -107.1358 274° West 423 487 30,000  Level Albuquerque Center
11:48AM 32.0211 -107.2731 274° West 423 487 30,000  Level Albuquerque Center
11:49AM 32.0294 -107.4100 274° West 423 487 30,000  Level Albuquerque Center
11:50AM 32.0375 -107.5447 273° West 423 487 30,000  Level Albuquerque Center
11:51AM 32.0436 -107.6792 275° West 423 487 30,000  Level Albuquerque Center
11:52AM 32.0536 -107.8117 274° West 423 487 30,000  Level Albuquerque Center
11:53AM 32.0614 -107.9464 274° West 423 487 30,000  Level Albuquerque Center
11:54AM 32.0689 -108.0858 275° West 423 487 30,000  Level Albuquerque Center
11:55AM 32.0783 -108.2231 274° West 423 487 30,000  Level Albuquerque Center
11:56AM 32.0858 -108.3578 275° West 423 487 30,000  Level Albuquerque Center
11:57AM 32.0950 -108.4953 273° West 423 487 30,000  Level Albuquerque Center
11:58AM 32.1019 -108.6325 274° West 423 487 30,000  Level Albuquerque Center
11:59AM 32.1089 -108.7672 274° West 423 487 30,000  Level Albuquerque Center
12:00PM 32.1175 -108.9022 273° West 423 487 30,000  Level Albuquerque Center
12:01PM 32.1242 -109.0394 274° West 423 487 30,000 -480 Level Albuquerque Center
12:02PM 32.1325 -109.1769 275° West 423 487 29,100 -960 Descending Albuquerque Center
12:03PM 32.1428 -109.3167 278° West 423 487 28,100 -1,020 Descending Albuquerque Center
12:04PM 32.1592 -109.4519 279° West 423 487 27,100 -1,020 Descending Albuquerque Center
12:05PM 32.1775 -109.5897 278° West 423 487 26,100 -1,740 Descending Albuquerque Center
12:06PM 32.1919 -109.7128 278° West 412 474 23,700 -2,400 Descending Albuquerque Center
12:07PM 32.2081 -109.8408 265° West 405 466 21,400 -2,400 Descending Albuquerque Center
12:08PM 32.1994 -109.9581 262° West 381 438 19,000 -2,160 Descending Albuquerque Center
12:09PM 32.1864 -110.0706 258° West 364 419 17,100 -2,160 Descending Albuquerque Center
12:09PM 32.1747 -110.1339 273° West 350 403 15,600 -2,280 Descending Albuquerque Center
12:11PM 32.1817 -110.2811 283° West 345 397 12,600 -2,160 Descending Albuquerque Center
12:12PM 32.2019 -110.3875 280° West 340 391 10,500 -1,320 Descending Albuquerque Center
12:13PM 32.2178 -110.4933 281° West 335 386 10,000 -300 Descending Albuquerque Center
12:14PM 32.2358 -110.5994 282° West 335 386 10,000 -420 Level Albuquerque Center
12:15PM 32.2558 -110.7131 282° West 299 344 9,200 -1,200 Descending Albuquerque Center
12:16PM 32.2739 -110.8097 282° West 276 318 7,500 -1,020 Descending Albuquerque Center
12:17PM 32.2900 -110.8986 251° West 240 276 7,000 -600 Descending Albuquerque Center
12:18PM 32.2692 -110.9689 221° Southwest 233 268 6,300 -780 Descending Albuquerque Center
12:19PM 32.2239 -111.0161 221° Southwest 210 242 5,500 -840 Descending Albuquerque Center